sensor_id;sensor_type;location;lat;lon;timestamp;pressure;altitude;pressure_sealevel;temperature;humidity
19884;BME280;10104;50.732;10.174;2023-12-20T00:00:00;97683.66;;;3.76;100.00
19884;BME280;10104;50.732;10.174;2023-12-20T00:02:40;97687.13;;;3.85;100.00
19884;BME280;10104;50.732;10.174;2023-12-20T00:05:25;97692.09;;;3.88;100.00
19884;BME280;10104;50.732;10.174;2023-12-20T00:08:05;97683.41;;;3.87;100.00
19884;BME280;10104;50.732;10.174;2023-12-20T00:10:45;97686.16;;;3.86;100.00
19884;BME280;10104;50.732;10.174;2023-12-20T00:13:25;97679.97;;;3.87;100.00
19884;BME280;10104;50.732;10.174;2023-12-20T00:16:06;97666.56;;;3.90;100.00
19884;BME280;10104;50.732;10.174;2023-12-20T00:18:46;97669.34;;;3.88;100.00
19884;BME280;10104;50.732;10.174;2023-12-20T00:21:26;97674.13;;;3.93;100.00
19884;BME280;10104;50.732;10.174;2023-12-20T00:24:07;97677.03;;;3.90;100.00
19884;BME280;10104;50.732;10.174;2023-12-20T00:26:47;97674.72;;;3.87;100.00
19884;BME280;10104;50.732;10.174;2023-12-20T00:29:27;97680.94;;;3.86;100.00
19884;BME280;10104;50.732;10.174;2023-12-20T00:32:07;97675.00;;;3.84;100.00
19884;BME280;10104;50.732;10.174;2023-12-20T00:34:47;97677.50;;;3.85;100.00
19884;BME280;10104;50.732;10.174;2023-12-20T00:37:28;97681.28;;;3.91;100.00
19884;BME280;10104;50.732;10.174;2023-12-20T00:40:09;97666.94;;;3.95;100.00
19884;BME280;10104;50.732;10.174;2023-12-20T00:42:49;97666.78;;;3.96;100.00
19884;BME280;10104;50.732;10.174;2023-12-20T00:45:29;97664.97;;;3.97;100.00
19884;BME280;10104;50.732;10.174;2023-12-20T00:48:09;97654.81;;;3.94;100.00
19884;BME280;10104;50.732;10.174;2023-12-20T00:50:49;97668.78;;;4.02;100.00
19884;BME280;10104;50.732;10.174;2023-12-20T00:53:29;97666.78;;;3.96;100.00
19884;BME280;10104;50.732;10.174;2023-12-20T00:56:10;97671.88;;;3.98;100.00
19884;BME280;10104;50.732;10.174;2023-12-20T00:58:50;97673.38;;;4.00;100.00
19884;BME280;10104;50.732;10.174;2023-12-20T01:01:30;97668.50;;;4.05;100.00
19884;BME280;10104;50.732;10.174;2023-12-20T01:04:13;97668.13;;;4.00;100.00
19884;BME280;10104;50.732;10.174;2023-12-20T01:06:53;97654.56;;;4.05;100.00
19884;BME280;10104;50.732;10.174;2023-12-20T01:09:33;97650.81;;;4.07;100.00
19884;BME280;10104;50.732;10.174;2023-12-20T01:12:14;97652.97;;;4.12;100.00
19884;BME280;10104;50.732;10.174;2023-12-20T01:14:55;97650.16;;;4.05;100.00
19884;BME280;10104;50.732;10.174;2023-12-20T01:17:35;97647.22;;;4.08;100.00
19884;BME280;10104;50.732;10.174;2023-12-20T01:20:16;97649.69;;;4.10;100.00
19884;BME280;10104;50.732;10.174;2023-12-20T01:22:57;97643.81;;;4.16;100.00
19884;BME280;10104;50.732;10.174;2023-12-20T01:25:37;97643.53;;;4.19;100.00
19884;BME280;10104;50.732;10.174;2023-12-20T01:28:17;97640.09;;;4.19;100.00
19884;BME280;10104;50.732;10.174;2023-12-20T01:30:57;97637.97;;;4.22;100.00
19884;BME280;10104;50.732;10.174;2023-12-20T01:33:38;97634.53;;;4.22;100.00
19884;BME280;10104;50.732;10.174;2023-12-20T01:36:18;97631.28;;;4.28;100.00
19884;BME280;10104;50.732;10.174;2023-12-20T01:38:59;97636.31;;;4.21;100.00
19884;BME280;10104;50.732;10.174;2023-12-20T01:41:39;97629.91;;;4.16;100.00
19884;BME280;10104;50.732;10.174;2023-12-20T01:44:20;97638.94;;;4.21;100.00
19884;BME280;10104;50.732;10.174;2023-12-20T01:47:01;97634.38;;;4.23;100.00
19884;BME280;10104;50.732;10.174;2023-12-20T01:49:41;97635.69;;;4.27;100.00
19884;BME280;10104;50.732;10.174;2023-12-20T01:52:23;97631.28;;;4.28;100.00
19884;BME280;10104;50.732;10.174;2023-12-20T01:55:04;97621.47;;;4.30;100.00
19884;BME280;10104;50.732;10.174;2023-12-20T01:57:53;97628.47;;;4.21;100.00
19884;BME280;10104;50.732;10.174;2023-12-20T02:00:34;97624.38;;;4.19;100.00
19884;BME280;10104;50.732;10.174;2023-12-20T02:03:15;97624.41;;;4.27;100.00
19884;BME280;10104;50.732;10.174;2023-12-20T02:05:56;97618.03;;;4.29;100.00
19884;BME280;10104;50.732;10.174;2023-12-20T02:08:37;97619.00;;;4.28;100.00
19884;BME280;10104;50.732;10.174;2023-12-20T02:11:17;97607.56;;;4.29;100.00
19884;BME280;10104;50.732;10.174;2023-12-20T02:13:57;97604.78;;;4.31;100.00
19884;BME280;10104;50.732;10.174;2023-12-20T02:16:38;97611.63;;;4.24;100.00
19884;BME280;10104;50.732;10.174;2023-12-20T02:19:19;97607.41;;;4.31;100.00
19884;BME280;10104;50.732;10.174;2023-12-20T02:22:26;97596.41;;;4.27;100.00
19884;BME280;10104;50.732;10.174;2023-12-20T02:25:06;97589.88;;;4.31;100.00
19884;BME280;10104;50.732;10.174;2023-12-20T02:27:48;97601.63;;;4.27;100.00
19884;BME280;10104;50.732;10.174;2023-12-20T02:30:28;97603.28;;;4.28;100.00
19884;BME280;10104;50.732;10.174;2023-12-20T02:33:10;97597.22;;;4.28;100.00
19884;BME280;10104;50.732;10.174;2023-12-20T02:35:52;97595.56;;;4.27;100.00
19884;BME280;10104;50.732;10.174;2023-12-20T02:38:32;97592.94;;;4.27;100.00
19884;BME280;10104;50.732;10.174;2023-12-20T02:41:14;97575.44;;;4.27;100.00
19884;BME280;10104;50.732;10.174;2023-12-20T02:43:56;97563.84;;;4.30;100.00
19884;BME280;10104;50.732;10.174;2023-12-20T02:46:36;97578.94;;;4.36;100.00
19884;BME280;10104;50.732;10.174;2023-12-20T02:49:16;97573.34;;;4.39;100.00
19884;BME280;10104;50.732;10.174;2023-12-20T02:51:57;97587.47;;;4.46;100.00
19884;BME280;10104;50.732;10.174;2023-12-20T02:54:38;97582.72;;;4.41;100.00
19884;BME280;10104;50.732;10.174;2023-12-20T02:57:18;97572.72;;;4.37;100.00
19884;BME280;10104;50.732;10.174;2023-12-20T02:59:58;97578.78;;;4.37;100.00
19884;BME280;10104;50.732;10.174;2023-12-20T03:02:38;97582.03;;;4.39;100.00
19884;BME280;10104;50.732;10.174;2023-12-20T03:05:18;97591.25;;;4.43;100.00
19884;BME280;10104;50.732;10.174;2023-12-20T03:07:59;97586.00;;;4.43;100.00
19884;BME280;10104;50.732;10.174;2023-12-20T03:10:39;97581.41;;;4.45;100.00
19884;BME280;10104;50.732;10.174;2023-12-20T03:13:19;97577.97;;;4.45;100.00
19884;BME280;10104;50.732;10.174;2023-12-20T03:15:59;97578.97;;;4.44;100.00
19884;BME280;10104;50.732;10.174;2023-12-20T03:18:40;97597.97;;;4.46;100.00
19884;BME280;10104;50.732;10.174;2023-12-20T03:21:20;97589.13;;;4.47;100.00
19884;BME280;10104;50.732;10.174;2023-12-20T03:24:00;97581.75;;;4.51;100.00
19884;BME280;10104;50.732;10.174;2023-12-20T03:26:41;97596.88;;;4.57;100.00
19884;BME280;10104;50.732;10.174;2023-12-20T03:29:21;97596.56;;;4.60;100.00
19884;BME280;10104;50.732;10.174;2023-12-20T03:32:01;97598.69;;;4.56;100.00
19884;BME280;10104;50.732;10.174;2023-12-20T03:34:41;97591.81;;;4.63;100.00
19884;BME280;10104;50.732;10.174;2023-12-20T03:37:22;97596.91;;;4.65;100.00
19884;BME280;10104;50.732;10.174;2023-12-20T03:40:03;97595.25;;;4.64;100.00
19884;BME280;10104;50.732;10.174;2023-12-20T03:42:43;97596.56;;;4.60;100.00
19884;BME280;10104;50.732;10.174;2023-12-20T03:45:24;97598.22;;;4.61;100.00
19884;BME280;10104;50.732;10.174;2023-12-20T03:48:05;97595.59;;;4.61;100.00
19884;BME280;10104;50.732;10.174;2023-12-20T03:50:45;97580.81;;;4.60;100.00
19884;BME280;10104;50.732;10.174;2023-12-20T03:53:25;97596.56;;;4.60;100.00
19884;BME280;10104;50.732;10.174;2023-12-20T03:56:06;97600.63;;;4.54;100.00
19884;BME280;10104;50.732;10.174;2023-12-20T03:58:46;97589.81;;;4.57;100.00
19884;BME280;10104;50.732;10.174;2023-12-20T04:01:27;97595.44;;;4.62;100.00
19884;BME280;10104;50.732;10.174;2023-12-20T04:04:07;97587.03;;;4.59;100.00
19884;BME280;10104;50.732;10.174;2023-12-20T04:06:47;97588.53;;;4.61;100.00
19884;BME280;10104;50.732;10.174;2023-12-20T04:09:28;97605.91;;;4.62;100.00
19884;BME280;10104;50.732;10.174;2023-12-20T04:12:08;97600.69;;;4.70;100.00
19884;BME280;10104;50.732;10.174;2023-12-20T04:14:48;97600.19;;;4.67;100.00
19884;BME280;10104;50.732;10.174;2023-12-20T04:17:29;97598.88;;;4.71;100.00
19884;BME280;10104;50.732;10.174;2023-12-20T04:20:09;97593.97;;;4.76;100.00
19884;BME280;10104;50.732;10.174;2023-12-20T04:22:50;97592.53;;;4.81;100.00
19884;BME280;10104;50.732;10.174;2023-12-20T04:25:30;97588.78;;;4.84;100.00
19884;BME280;10104;50.732;10.174;2023-12-20T04:28:11;97593.22;;;4.92;100.00
19884;BME280;10104;50.732;10.174;2023-12-20T04:30:51;97599.16;;;4.94;100.00
19884;BME280;10104;50.732;10.174;2023-12-20T04:33:31;97600.13;;;5.01;100.00
19884;BME280;10104;50.732;10.174;2023-12-20T04:36:11;97605.69;;;4.98;100.00
19884;BME280;10104;50.732;10.174;2023-12-20T04:38:53;97605.84;;;4.96;100.00
19884;BME280;10104;50.732;10.174;2023-12-20T04:41:33;97598.13;;;4.95;100.00
19884;BME280;10104;50.732;10.174;2023-12-20T04:44:13;97601.78;;;5.02;100.00
19884;BME280;10104;50.732;10.174;2023-12-20T04:46:53;97598.97;;;4.95;100.00
19884;BME280;10104;50.732;10.174;2023-12-20T04:49:34;97595.06;;;4.99;100.00
19884;BME280;10104;50.732;10.174;2023-12-20T04:52:14;97601.13;;;5.00;100.00
19884;BME280;10104;50.732;10.174;2023-12-20T04:54:54;97602.06;;;4.91;100.00
19884;BME280;10104;50.732;10.174;2023-12-20T04:57:35;97602.06;;;4.91;100.00
19884;BME280;10104;50.732;10.174;2023-12-20T05:00:15;97610.88;;;4.81;100.00
19884;BME280;10104;50.732;10.174;2023-12-20T05:02:55;97612.53;;;4.74;100.00
19884;BME280;10104;50.732;10.174;2023-12-20T05:05:36;97613.50;;;4.73;100.00
19884;BME280;10104;50.732;10.174;2023-12-20T05:08:16;97615.16;;;4.74;100.00
19884;BME280;10104;50.732;10.174;2023-12-20T05:10:57;97620.53;;;4.73;100.00
19884;BME280;10104;50.732;10.174;2023-12-20T05:13:37;97625.78;;;4.73;100.00
19884;BME280;10104;50.732;10.174;2023-12-20T05:16:28;97620.38;;;4.74;100.00
19884;BME280;10104;50.732;10.174;2023-12-20T05:19:08;97627.09;;;4.77;100.00
19884;BME280;10104;50.732;10.174;2023-12-20T05:21:48;97632.81;;;4.72;100.00
19884;BME280;10104;50.732;10.174;2023-12-20T05:24:29;97643.16;;;4.74;100.00
19884;BME280;10104;50.732;10.174;2023-12-20T05:27:10;97642.84;;;4.77;100.00
19884;BME280;10104;50.732;10.174;2023-12-20T05:29:51;97643.50;;;4.79;100.00
19884;BME280;10104;50.732;10.174;2023-12-20T05:32:31;97646.75;;;4.73;100.00
19884;BME280;10104;50.732;10.174;2023-12-20T05:35:11;97653.13;;;4.70;100.00
19884;BME280;10104;50.732;10.174;2023-12-20T05:37:52;97658.91;;;4.74;100.00
19884;BME280;10104;50.732;10.174;2023-12-20T05:40:32;97652.16;;;4.71;100.00
19884;BME280;10104;50.732;10.174;2023-12-20T05:43:12;97657.25;;;4.73;100.00
19884;BME280;10104;50.732;10.174;2023-12-20T05:45:52;97661.66;;;4.72;100.00
19884;BME280;10104;50.732;10.174;2023-12-20T05:48:32;97667.13;;;4.79;100.00
19884;BME280;10104;50.732;10.174;2023-12-20T05:51:13;97671.69;;;4.77;100.00
19884;BME280;10104;50.732;10.174;2023-12-20T05:53:53;97680.38;;;4.77;100.00
19884;BME280;10104;50.732;10.174;2023-12-20T05:56:34;97688.91;;;4.79;100.00
19884;BME280;10104;50.732;10.174;2023-12-20T05:59:14;97681.06;;;4.79;100.00
19884;BME280;10104;50.732;10.174;2023-12-20T06:01:54;97675.19;;;4.85;100.00
19884;BME280;10104;50.732;10.174;2023-12-20T06:04:35;97675.66;;;4.81;100.00
19884;BME280;10104;50.732;10.174;2023-12-20T06:07:16;97675.94;;;4.78;100.00
19884;BME280;10104;50.732;10.174;2023-12-20T06:09:57;97670.91;;;4.84;100.00
19884;BME280;10104;50.732;10.174;2023-12-20T06:12:37;97679.75;;;4.83;100.00
19884;BME280;10104;50.732;10.174;2023-12-20T06:15:18;97677.75;;;4.77;100.00
19884;BME280;10104;50.732;10.174;2023-12-20T06:17:58;97684.44;;;4.72;100.00
19884;BME280;10104;50.732;10.174;2023-12-20T06:20:38;97686.78;;;4.75;100.00
19884;BME280;10104;50.732;10.174;2023-12-20T06:23:18;97706.41;;;4.71;100.00
19884;BME280;10104;50.732;10.174;2023-12-20T06:25:59;97705.22;;;4.65;100.00
19884;BME280;10104;50.732;10.174;2023-12-20T06:28:39;97697.84;;;4.61;100.00
19884;BME280;10104;50.732;10.174;2023-12-20T06:31:21;97711.25;;;4.58;100.00
19884;BME280;10104;50.732;10.174;2023-12-20T06:34:01;97702.88;;;4.54;100.00
19884;BME280;10104;50.732;10.174;2023-12-20T06:36:42;97708.13;;;4.54;100.00
19884;BME280;10104;50.732;10.174;2023-12-20T06:39:22;97695.31;;;4.51;100.00
19884;BME280;10104;50.732;10.174;2023-12-20T06:42:03;97696.94;;;4.44;100.00
19884;BME280;10104;50.732;10.174;2023-12-20T06:44:43;97690.28;;;4.32;100.00
19884;BME280;10104;50.732;10.174;2023-12-20T06:47:24;97677.81;;;4.26;100.00
19884;BME280;10104;50.732;10.174;2023-12-20T06:50:05;97683.47;;;4.21;100.00
19884;BME280;10104;50.732;10.174;2023-12-20T06:52:46;97691.00;;;4.16;100.00
19884;BME280;10104;50.732;10.174;2023-12-20T06:55:26;97705.59;;;4.19;100.00
19884;BME280;10104;50.732;10.174;2023-12-20T06:58:06;97707.69;;;4.15;100.00
19884;BME280;10104;50.732;10.174;2023-12-20T07:00:46;97710.63;;;4.12;100.00
19884;BME280;10104;50.732;10.174;2023-12-20T07:03:27;97703.50;;;4.04;100.00
19884;BME280;10104;50.732;10.174;2023-12-20T07:06:08;97713.16;;;4.04;100.00
19884;BME280;10104;50.732;10.174;2023-12-20T07:08:48;97703.97;;;4.00;100.00
19884;BME280;10104;50.732;10.174;2023-12-20T07:11:28;97721.25;;;3.93;100.00
19884;BME280;10104;50.732;10.174;2023-12-20T07:14:09;97708.41;;;3.82;100.00
19884;BME280;10104;50.732;10.174;2023-12-20T07:16:49;97714.47;;;3.82;100.00
19884;BME280;10104;50.732;10.174;2023-12-20T07:19:29;97708.09;;;3.85;100.00
19884;BME280;10104;50.732;10.174;2023-12-20T07:22:10;97722.38;;;3.90;100.00
19884;BME280;10104;50.732;10.174;2023-12-20T07:24:50;97710.41;;;3.88;100.00
19884;BME280;10104;50.732;10.174;2023-12-20T07:27:32;97717.59;;;3.86;100.00
19884;BME280;10104;50.732;10.174;2023-12-20T07:30:13;97716.25;;;3.82;100.00
19884;BME280;10104;50.732;10.174;2023-12-20T07:32:53;97716.09;;;3.83;100.00
19884;BME280;10104;50.732;10.174;2023-12-20T07:35:34;97717.38;;;3.79;100.00
19884;BME280;10104;50.732;10.174;2023-12-20T07:38:14;97725.59;;;3.84;100.00
19884;BME280;10104;50.732;10.174;2023-12-20T07:40:54;97724.63;;;3.85;100.00
19884;BME280;10104;50.732;10.174;2023-12-20T07:43:35;97729.72;;;3.87;100.00
19884;BME280;10104;50.732;10.174;2023-12-20T07:46:15;97729.13;;;3.93;100.00
19884;BME280;10104;50.732;10.174;2023-12-20T07:48:55;97729.25;;;3.91;100.00
19884;BME280;10104;50.732;10.174;2023-12-20T07:51:35;97729.63;;;3.96;100.00
19884;BME280;10104;50.732;10.174;2023-12-20T07:54:15;97741.59;;;3.99;100.00
19884;BME280;10104;50.732;10.174;2023-12-20T07:56:57;97742.06;;;3.94;100.00
19884;BME280;10104;50.732;10.174;2023-12-20T07:59:37;97733.22;;;3.95;100.00
19884;BME280;10104;50.732;10.174;2023-12-20T08:02:17;97745.50;;;3.95;100.00
19884;BME280;10104;50.732;10.174;2023-12-20T08:04:57;97742.50;;;3.90;100.00
19884;BME280;10104;50.732;10.174;2023-12-20T08:07:37;97738.69;;;3.84;100.00
19884;BME280;10104;50.732;10.174;2023-12-20T08:10:18;97746.53;;;3.84;100.00
19884;BME280;10104;50.732;10.174;2023-12-20T08:13:00;97744.47;;;3.88;100.00
19884;BME280;10104;50.732;10.174;2023-12-20T08:15:40;97745.50;;;3.95;100.00
19884;BME280;10104;50.732;10.174;2023-12-20T08:18:20;97753.41;;;4.03;100.00
19884;BME280;10104;50.732;10.174;2023-12-20T08:21:00;97762.25;;;4.02;100.00
19884;BME280;10104;50.732;10.174;2023-12-20T08:23:41;97750.66;;;4.04;100.00
19884;BME280;10104;50.732;10.174;2023-12-20T08:26:21;97753.75;;;4.00;100.00
19884;BME280;10104;50.732;10.174;2023-12-20T08:29:04;97743.78;;;4.03;100.00
19884;BME280;10104;50.732;10.174;2023-12-20T08:31:44;97757.78;;;4.12;100.00
19884;BME280;10104;50.732;10.174;2023-12-20T08:34:27;97758.00;;;4.19;100.00
19884;BME280;10104;50.732;10.174;2023-12-20T08:37:07;97755.75;;;4.24;100.00
19884;BME280;10104;50.732;10.174;2023-12-20T08:39:47;97762.69;;;4.33;100.00
19884;BME280;10104;50.732;10.174;2023-12-20T08:42:27;97774.66;;;4.35;100.00
19884;BME280;10104;50.732;10.174;2023-12-20T08:45:11;97779.28;;;4.41;100.00
19884;BME280;10104;50.732;10.174;2023-12-20T08:47:51;97770.56;;;4.59;100.00
19884;BME280;10104;50.732;10.174;2023-12-20T08:50:32;97768.41;;;4.54;100.00
19884;BME280;10104;50.732;10.174;2023-12-20T08:53:12;97760.63;;;4.44;100.00
19884;BME280;10104;50.732;10.174;2023-12-20T08:55:53;97753.75;;;4.43;100.00
19884;BME280;10104;50.732;10.174;2023-12-20T08:58:32;97752.00;;;4.52;100.00
19884;BME280;10104;50.732;10.174;2023-12-20T09:01:14;97764.22;;;4.61;100.00
19884;BME280;10104;50.732;10.174;2023-12-20T09:03:55;97765.19;;;4.60;100.00
19884;BME280;10104;50.732;10.174;2023-12-20T09:06:35;97758.81;;;4.63;100.00
19884;BME280;10104;50.732;10.174;2023-12-20T09:09:15;97769.19;;;4.72;100.00
19884;BME280;10104;50.732;10.174;2023-12-20T09:11:55;97773.63;;;4.72;100.00
19884;BME280;10104;50.732;10.174;2023-12-20T09:14:36;97769.47;;;4.69;100.00
19884;BME280;10104;50.732;10.174;2023-12-20T09:17:17;97769.88;;;4.74;100.00
19884;BME280;10104;50.732;10.174;2023-12-20T09:19:57;97766.97;;;4.60;100.00
19884;BME280;10104;50.732;10.174;2023-12-20T09:22:39;97761.72;;;4.60;100.00
19884;BME280;10104;50.732;10.174;2023-12-20T09:25:20;97752.56;;;4.64;100.00
19884;BME280;10104;50.732;10.174;2023-12-20T09:28:00;97768.97;;;4.66;100.00
19884;BME280;10104;50.732;10.174;2023-12-20T09:30:40;97766.84;;;4.69;100.00
19884;BME280;10104;50.732;10.174;2023-12-20T09:33:20;97760.44;;;4.64;100.00
19884;BME280;10104;50.732;10.174;2023-12-20T09:36:01;97761.19;;;4.74;100.00
19884;BME280;10104;50.732;10.174;2023-12-20T09:38:41;97753.25;;;4.66;100.00
19884;BME280;10104;50.732;10.174;2023-12-20T09:41:25;97764.72;;;4.65;100.00
19884;BME280;10104;50.732;10.174;2023-12-20T09:44:07;97760.63;;;4.62;100.00
19884;BME280;10104;50.732;10.174;2023-12-20T09:46:50;97755.50;;;4.61;100.00
19884;BME280;10104;50.732;10.174;2023-12-20T09:49:31;97749.94;;;4.64;100.00
19884;BME280;10104;50.732;10.174;2023-12-20T09:52:12;97743.44;;;4.68;100.00
19884;BME280;10104;50.732;10.174;2023-12-20T09:54:55;97746.88;;;4.68;100.00
19884;BME280;10104;50.732;10.174;2023-12-20T09:57:35;97752.16;;;4.76;100.00
19884;BME280;10104;50.732;10.174;2023-12-20T10:00:16;97742.75;;;4.66;100.00
19884;BME280;10104;50.732;10.174;2023-12-20T10:02:59;97736.63;;;4.57;100.00
19884;BME280;10104;50.732;10.174;2023-12-20T10:05:43;97756.50;;;4.60;100.00
19884;BME280;10104;50.732;10.174;2023-12-20T10:08:24;97743.03;;;4.80;100.00
19884;BME280;10104;50.732;10.174;2023-12-20T10:11:05;97729.44;;;4.85;100.00
19884;BME280;10104;50.732;10.174;2023-12-20T10:13:47;97722.31;;;5.03;100.00
19884;BME280;10104;50.732;10.174;2023-12-20T10:16:28;97714.91;;;4.99;100.00
19884;BME280;10104;50.732;10.174;2023-12-20T10:19:08;97719.63;;;4.95;100.00
19884;BME280;10104;50.732;10.174;2023-12-20T10:21:49;97723.56;;;4.91;100.00
19884;BME280;10104;50.732;10.174;2023-12-20T10:24:30;97718.56;;;5.06;100.00
19884;BME280;10104;50.732;10.174;2023-12-20T10:27:10;97708.56;;;5.09;100.00
19884;BME280;10104;50.732;10.174;2023-12-20T10:29:51;97708.06;;;5.14;100.00
19884;BME280;10104;50.732;10.174;2023-12-20T10:32:31;97683.78;;;5.04;100.00
19884;BME280;10104;50.732;10.174;2023-12-20T10:35:11;97700.69;;;5.09;100.00
19884;BME280;10104;50.732;10.174;2023-12-20T10:37:55;97695.28;;;5.11;100.00
19884;BME280;10104;50.732;10.174;2023-12-20T10:40:36;97691.34;;;5.15;100.00
19884;BME280;10104;50.732;10.174;2023-12-20T10:43:18;97710.69;;;5.14;100.00
19884;BME280;10104;50.732;10.174;2023-12-20T10:45:59;97699.19;;;5.07;100.00
19884;BME280;10104;50.732;10.174;2023-12-20T10:48:40;97707.88;;;4.99;100.00
19884;BME280;10104;50.732;10.174;2023-12-20T10:51:21;97703.25;;;5.01;100.00
19884;BME280;10104;50.732;10.174;2023-12-20T10:54:03;97704.56;;;4.97;100.00
19884;BME280;10104;50.732;10.174;2023-12-20T10:56:43;97702.81;;;5.06;100.00
19884;BME280;10104;50.732;10.174;2023-12-20T10:59:27;97695.59;;;5.08;100.00
19884;BME280;10104;50.732;10.174;2023-12-20T11:02:09;97685.56;;;5.03;100.00
19884;BME280;10104;50.732;10.174;2023-12-20T11:04:58;97694.47;;;5.10;100.00
19884;BME280;10104;50.732;10.174;2023-12-20T11:08:02;97687.22;;;5.12;100.00
19884;BME280;10104;50.732;10.174;2023-12-20T11:13:37;97683.31;;;5.16;100.00
19884;BME280;10104;50.732;10.174;2023-12-20T11:16:20;97681.19;;;5.20;100.00
19884;BME280;10104;50.732;10.174;2023-12-20T11:19:06;97672.38;;;5.37;100.00
19884;BME280;10104;50.732;10.174;2023-12-20T11:21:47;97675.94;;;5.20;100.00
19884;BME280;10104;50.732;10.174;2023-12-20T11:24:27;97661.88;;;5.37;100.00
19884;BME280;10104;50.732;10.174;2023-12-20T11:27:07;97651.38;;;5.37;100.00
19884;BME280;10104;50.732;10.174;2023-12-20T11:29:58;97654.19;;;5.44;100.00
19884;BME280;10104;50.732;10.174;2023-12-20T11:32:39;97659.78;;;5.57;100.00
19884;BME280;10104;50.732;10.174;2023-12-20T11:35:20;97650.44;;;5.54;100.00
19884;BME280;10104;50.732;10.174;2023-12-20T11:38:01;97651.06;;;5.56;100.00
19884;BME280;10104;50.732;10.174;2023-12-20T11:40:42;97647.47;;;5.57;100.00
19884;BME280;10104;50.732;10.174;2023-12-20T11:43:39;97649.78;;;5.60;100.00
19884;BME280;10104;50.732;10.174;2023-12-20T11:46:19;97647.44;;;5.49;100.00
19884;BME280;10104;50.732;10.174;2023-12-20T11:49:00;97651.25;;;5.55;100.00
19884;BME280;10104;50.732;10.174;2023-12-20T11:51:41;97646.81;;;5.47;100.00
19884;BME280;10104;50.732;10.174;2023-12-20T11:54:22;97641.88;;;5.52;100.00
19884;BME280;10104;50.732;10.174;2023-12-20T11:57:02;97634.50;;;5.56;100.00
19884;BME280;10104;50.732;10.174;2023-12-20T11:59:43;97625.47;;;5.50;100.00
19884;BME280;10104;50.732;10.174;2023-12-20T12:02:23;97642.88;;;5.59;100.00
19884;BME280;10104;50.732;10.174;2023-12-20T12:05:03;97631.56;;;5.67;100.00
19884;BME280;10104;50.732;10.174;2023-12-20T12:07:46;97625.16;;;5.53;100.00
19884;BME280;10104;50.732;10.174;2023-12-20T12:10:26;97629.59;;;5.61;100.00
19884;BME280;10104;50.732;10.174;2023-12-20T12:13:06;97632.53;;;5.58;100.00
19884;BME280;10104;50.732;10.174;2023-12-20T12:15:48;97635.16;;;5.74;100.00
19884;BME280;10104;50.732;10.174;2023-12-20T12:18:28;97630.13;;;5.89;100.00
19884;BME280;10104;50.732;10.174;2023-12-20T12:21:08;97618.13;;;5.94;100.00
19884;BME280;10104;50.732;10.174;2023-12-20T12:24:07;97623.19;;;5.72;100.00
19884;BME280;10104;50.732;10.174;2023-12-20T12:26:51;97624.69;;;5.90;100.00
19884;BME280;10104;50.732;10.174;2023-12-20T12:29:31;97624.53;;;5.92;100.00
19884;BME280;10104;50.732;10.174;2023-12-20T12:32:11;97640.28;;;6.08;100.00
19884;BME280;10104;50.732;10.174;2023-12-20T12:34:52;97631.78;;;5.98;100.00
19884;BME280;10104;50.732;10.174;2023-12-20T12:37:38;97628.63;;;5.86;100.00
19884;BME280;10104;50.732;10.174;2023-12-20T12:40:20;97621.88;;;5.84;100.00
19884;BME280;10104;50.732;10.174;2023-12-20T12:43:00;97624.50;;;5.84;100.00
19884;BME280;10104;50.732;10.174;2023-12-20T12:45:40;97612.34;;;5.83;100.00
19884;BME280;10104;50.732;10.174;2023-12-20T12:48:20;97606.28;;;5.74;100.00
19884;BME280;10104;50.732;10.174;2023-12-20T12:51:01;97592.66;;;5.79;100.00
19884;BME280;10104;50.732;10.174;2023-12-20T12:53:41;97595.75;;;5.74;100.00
19884;BME280;10104;50.732;10.174;2023-12-20T12:56:21;97585.91;;;5.68;100.00
19884;BME280;10104;50.732;10.174;2023-12-20T12:59:02;97579.38;;;5.72;100.00
19884;BME280;10104;50.732;10.174;2023-12-20T13:01:42;97594.16;;;5.73;100.00
19884;BME280;10104;50.732;10.174;2023-12-20T13:04:23;97563.25;;;5.83;100.00
19884;BME280;10104;50.732;10.174;2023-12-20T13:07:03;97574.13;;;5.96;100.00
19884;BME280;10104;50.732;10.174;2023-12-20T13:09:44;97584.78;;;6.03;100.00
19884;BME280;10104;50.732;10.174;2023-12-20T13:12:25;97546.81;;;6.05;100.00
19884;BME280;10104;50.732;10.174;2023-12-20T13:15:05;97552.41;;;6.02;100.00
19884;BME280;10104;50.732;10.174;2023-12-20T13:17:45;97554.69;;;6.05;100.00
19884;BME280;10104;50.732;10.174;2023-12-20T13:20:27;97530.75;;;6.00;100.00
19884;BME280;10104;50.732;10.174;2023-12-20T13:23:07;97544.56;;;5.86;100.00
19884;BME280;10104;50.732;10.174;2023-12-20T13:25:47;97536.16;;;5.83;100.00
19884;BME280;10104;50.732;10.174;2023-12-20T13:28:28;97526.53;;;5.67;100.00
19884;BME280;10104;50.732;10.174;2023-12-20T13:31:08;97516.69;;;5.61;100.00
19884;BME280;10104;50.732;10.174;2023-12-20T13:33:48;97525.38;;;5.61;100.00
19884;BME280;10104;50.732;10.174;2023-12-20T13:36:28;97530.78;;;5.60;100.00
19884;BME280;10104;50.732;10.174;2023-12-20T13:39:09;97519.63;;;5.58;100.00
19884;BME280;10104;50.732;10.174;2023-12-20T13:41:49;97520.94;;;5.54;100.00
19884;BME280;10104;50.732;10.174;2023-12-20T13:44:29;97514.06;;;5.53;100.00
19884;BME280;10104;50.732;10.174;2023-12-20T13:47:10;97514.41;;;5.42;100.00
19884;BME280;10104;50.732;10.174;2023-12-20T13:49:50;97517.50;;;5.37;100.00
19884;BME280;10104;50.732;10.174;2023-12-20T13:52:30;97515.69;;;5.38;100.00
19884;BME280;10104;50.732;10.174;2023-12-20T13:55:10;97517.50;;;5.37;100.00
19884;BME280;10104;50.732;10.174;2023-12-20T13:57:51;97519.63;;;5.34;100.00
19884;BME280;10104;50.732;10.174;2023-12-20T14:00:35;97530.47;;;5.31;100.00
19884;BME280;10104;50.732;10.174;2023-12-20T14:03:16;97535.88;;;5.37;100.00